createdAt,value
2022-12-06T00:00:49.054Z,88.67
2022-12-06T00:03:21.752Z,90.07
2022-12-06T00:06:02.429Z,89.46
2022-12-06T00:08:36.091Z,89.26
2022-12-06T00:11:15.359Z,89.23
2022-12-06T00:13:53.002Z,90.19
2022-12-06T00:16:27.069Z,89.09
2022-12-06T00:19:00.631Z,89.16
2022-12-06T00:21:37.610Z,89.43
2022-12-06T00:24:20.610Z,88.65
2022-12-06T00:26:53.280Z,88.99
2022-12-06T00:29:25.821Z,89.99
2022-12-06T00:31:58.681Z,89.23
2022-12-06T00:34:31.400Z,89.08
2022-12-06T00:37:04.036Z,88.89
2022-12-06T00:39:36.645Z,88.95
2022-12-06T00:42:09.324Z,88.72
2022-12-06T00:44:41.962Z,89.09
2022-12-06T00:47:14.496Z,88.96
2022-12-06T00:49:47.058Z,89.01
2022-12-06T00:52:19.684Z,88.54
2022-12-06T00:54:52.322Z,89.18
2022-12-06T00:57:24.962Z,89.08
2022-12-06T00:59:57.968Z,88.85
2022-12-06T01:02:30.818Z,88.82
2022-12-06T01:05:03.727Z,88.60
2022-12-06T01:07:36.349Z,88.13
2022-12-06T01:10:09.207Z,88.76
2022-12-06T01:12:41.722Z,88.00
2022-12-06T01:15:17.957Z,88.70
2022-12-06T01:17:50.533Z,88.37
2022-12-06T01:20:23.118Z,89.05
2022-12-06T01:22:55.576Z,88.98
2022-12-06T01:25:30.725Z,88.87
2022-12-06T01:28:06.997Z,89.58
2022-12-06T01:30:40.332Z,89.40
2022-12-06T01:33:12.934Z,90.01
2022-12-06T01:35:45.579Z,90.14
2022-12-06T01:38:18.559Z,89.49
2022-12-06T01:41:00.510Z,89.51
2022-12-06T01:43:43.190Z,89.42
2022-12-06T01:46:33.553Z,89.45
2022-12-06T01:49:25.379Z,89.43
2022-12-06T01:52:05.946Z,89.46
2022-12-06T01:54:40.270Z,89.38
2022-12-06T01:57:16.548Z,90.57
2022-12-06T01:59:49.196Z,89.89
2022-12-06T02:02:22.168Z,89.19
2022-12-06T02:04:56.527Z,89.42
2022-12-06T02:07:29.870Z,89.96
2022-12-06T02:10:06.354Z,89.98
2022-12-06T02:12:39.028Z,89.67
2022-12-06T02:15:11.679Z,89.12
2022-12-06T02:18:15.616Z,89.57
2022-12-06T02:21:12.432Z,89.22
2022-12-06T02:24:14.309Z,88.84
2022-12-06T02:27:09.829Z,89.16
2022-12-06T02:30:31.303Z,88.91
2022-12-06T02:33:13.017Z,88.64
2022-12-06T02:36:03.680Z,88.28
2022-12-06T02:38:49.255Z,87.78
2022-12-06T02:41:29.134Z,88.13
2022-12-06T02:44:12.735Z,87.62
2022-12-06T02:46:50.252Z,87.29
2022-12-06T02:49:27.953Z,88.09
2022-12-06T02:52:02.769Z,87.71
2022-12-06T02:54:35.614Z,87.45
2022-12-06T02:57:08.179Z,86.96
2022-12-06T02:59:54.167Z,87.05
2022-12-06T03:02:26.834Z,86.96
2022-12-06T03:05:25.040Z,88.51
2022-12-06T03:08:04.267Z,87.91
2022-12-06T03:10:55.845Z,88.63
2022-12-06T03:13:50.715Z,88.66
2022-12-06T03:16:32.725Z,89.11
2022-12-06T03:19:19.832Z,88.22
2022-12-06T03:22:08.946Z,87.65
2022-12-06T03:24:44.345Z,87.90
2022-12-06T03:27:20.754Z,88.25
2022-12-06T03:30:00.928Z,87.70
2022-12-06T03:32:38.188Z,87.99
2022-12-06T03:35:15.519Z,87.98
2022-12-06T03:37:57.508Z,88.09
2022-12-06T03:40:35.107Z,88.49
2022-12-06T03:43:08.407Z,88.33
2022-12-06T03:46:01.981Z,88.47
2022-12-06T03:48:49.333Z,88.18
2022-12-06T03:51:36.140Z,88.22
2022-12-06T03:54:08.958Z,88.27
2022-12-06T03:56:41.559Z,87.77
2022-12-06T03:59:17.908Z,88.00
2022-12-06T04:01:50.412Z,88.16
2022-12-06T04:04:24.959Z,88.78
2022-12-06T04:06:57.498Z,88.05
2022-12-06T04:09:48.667Z,88.92
2022-12-06T04:12:39.836Z,88.97
2022-12-06T04:15:12.590Z,88.79
2022-12-06T04:18:03.566Z,89.02
2022-12-06T04:21:08.539Z,88.84
2022-12-06T04:23:45.069Z,89.21
2022-12-06T04:26:22.901Z,89.31
2022-12-06T04:29:13.940Z,88.97
2022-12-06T04:32:05.168Z,88.83
2022-12-06T04:34:56.467Z,88.30
2022-12-06T04:37:47.767Z,89.01
2022-12-06T04:40:20.288Z,88.65
2022-12-06T04:43:11.434Z,89.32
2022-12-06T04:45:43.967Z,89.50
2022-12-06T04:48:16.504Z,89.66
2022-12-06T04:50:50.705Z,89.22
2022-12-06T04:53:23.429Z,89.28
2022-12-06T04:55:56.498Z,89.48
2022-12-06T04:58:28.964Z,88.98
2022-12-06T05:01:01.987Z,88.56
2022-12-06T05:03:38.335Z,89.31
2022-12-06T05:06:13.594Z,88.67
2022-12-06T05:08:46.140Z,89.04
2022-12-06T05:11:18.761Z,88.72
2022-12-06T05:13:51.421Z,88.28
2022-12-06T05:16:24.077Z,88.31
2022-12-06T05:18:56.760Z,88.64
2022-12-06T05:21:29.512Z,88.33
2022-12-06T05:24:02.057Z,88.39
2022-12-06T05:26:34.570Z,87.85
2022-12-06T05:29:07.153Z,88.11
2022-12-06T05:31:39.765Z,88.72
2022-12-06T05:34:12.299Z,87.97
2022-12-06T05:36:45.932Z,88.69
2022-12-06T05:39:18.500Z,89.19
2022-12-06T05:41:51.030Z,88.85
2022-12-06T05:44:23.733Z,88.46
2022-12-06T05:46:56.267Z,89.05
2022-12-06T05:49:28.801Z,88.49
2022-12-06T05:52:04.222Z,87.72
2022-12-06T05:54:36.990Z,88.20
2022-12-06T05:57:09.577Z,88.78
2022-12-06T05:59:42.257Z,88.09
2022-12-06T06:02:14.937Z,88.32
2022-12-06T06:04:47.616Z,88.68
2022-12-06T06:07:20.211Z,88.26
2022-12-06T06:09:52.712Z,88.14
2022-12-06T06:12:25.429Z,87.65
2022-12-06T06:14:57.992Z,87.71
2022-12-06T06:17:30.631Z,87.24
2022-12-06T06:20:06.057Z,87.64
2022-12-06T06:22:40.009Z,87.91
2022-12-06T06:25:12.551Z,87.39
2022-12-06T06:27:45.082Z,87.87
2022-12-06T06:30:18.586Z,88.10
2022-12-06T06:32:51.229Z,87.75
2022-12-06T06:35:24.932Z,87.79
2022-12-06T06:37:57.459Z,87.99
2022-12-06T06:40:30.557Z,88.24
2022-12-06T06:43:18.343Z,88.05
2022-12-06T06:46:03.663Z,88.00
2022-12-06T06:48:39.044Z,88.84
2022-12-06T06:51:14.794Z,89.81
2022-12-06T06:53:47.393Z,90.04
2022-12-06T06:56:20.204Z,89.63
2022-12-06T06:58:53.259Z,90.24
2022-12-06T07:01:25.890Z,89.59
2022-12-06T07:03:58.720Z,90.60
2022-12-06T07:06:31.321Z,90.59
2022-12-06T07:09:04.413Z,90.52
2022-12-06T07:11:37.672Z,89.75
2022-12-06T07:14:10.291Z,89.68
2022-12-06T07:16:42.931Z,90.48
2022-12-06T07:19:15.451Z,90.28
2022-12-06T07:21:49.012Z,89.75
2022-12-06T07:24:21.545Z,89.56
2022-12-06T07:26:56.703Z,90.00
2022-12-06T07:29:29.233Z,89.96
2022-12-06T07:32:01.802Z,89.79
2022-12-06T07:34:34.382Z,89.99
2022-12-06T07:37:06.899Z,89.69
2022-12-06T07:39:39.420Z,89.84
2022-12-06T07:42:30.934Z,89.63
2022-12-06T07:45:05.525Z,89.68
2022-12-06T07:47:42.397Z,89.43
2022-12-06T07:50:18.973Z,89.50
2022-12-06T07:52:51.630Z,89.72
2022-12-06T07:55:24.194Z,90.00
2022-12-06T07:57:56.787Z,90.07
2022-12-06T08:00:29.370Z,90.50
2022-12-06T08:03:02.311Z,90.00
2022-12-06T08:05:34.924Z,89.28
2022-12-06T08:08:07.565Z,90.04
2022-12-06T08:10:40.131Z,89.61
2022-12-06T08:13:12.811Z,89.58
2022-12-06T08:15:45.403Z,89.23
2022-12-06T08:18:17.949Z,89.31
2022-12-06T08:20:51.125Z,89.21
2022-12-06T08:23:27.904Z,88.51
2022-12-06T08:26:08.154Z,88.60
2022-12-06T08:28:43.245Z,88.92
2022-12-06T08:31:20.484Z,88.90
2022-12-06T08:33:53.417Z,88.53
2022-12-06T08:36:29.289Z,88.27
2022-12-06T08:39:02.082Z,87.91
2022-12-06T08:41:53.270Z,87.10
2022-12-06T08:44:31.410Z,87.38
2022-12-06T08:47:04.193Z,87.95
2022-12-06T08:49:36.753Z,87.68
2022-12-06T08:52:09.973Z,87.68
2022-12-06T08:54:42.504Z,88.09
2022-12-06T08:57:15.169Z,87.48
2022-12-06T08:59:47.777Z,87.12
2022-12-06T09:02:20.463Z,87.21
2022-12-06T09:04:53.092Z,87.09
2022-12-06T09:07:26.492Z,87.44
2022-12-06T09:09:59.251Z,87.88
2022-12-06T09:12:32.212Z,88.45
2022-12-06T09:15:06.034Z,88.88
2022-12-06T09:17:38.684Z,89.60
2022-12-06T09:20:17.886Z,89.98
2022-12-06T09:22:50.452Z,89.94
2022-12-06T09:25:23.180Z,89.58
2022-12-06T09:27:55.734Z,90.28
2022-12-06T09:30:28.257Z,89.90
2022-12-06T09:33:00.832Z,89.56
2022-12-06T09:35:35.215Z,89.63
2022-12-06T09:38:08.356Z,89.58
2022-12-06T09:41:24.436Z,89.01
2022-12-06T09:44:24.212Z,88.65
2022-12-06T09:47:48.014Z,88.87
2022-12-06T09:50:48.369Z,88.88
2022-12-06T09:53:45.054Z,88.20
2022-12-06T09:56:38.837Z,88.77
2022-12-06T09:59:23.516Z,88.54
2022-12-06T10:02:21.166Z,87.85
2022-12-06T10:05:45.963Z,87.59
2022-12-06T10:08:48.058Z,88.08
2022-12-06T10:11:41.735Z,88.38
2022-12-06T10:14:56.521Z,87.18
2022-12-06T10:17:33.541Z,87.20
2022-12-06T10:20:38.604Z,87.50
2022-12-06T10:23:29.421Z,87.09
2022-12-06T10:26:14.666Z,86.45
2022-12-06T10:29:02.371Z,86.46
2022-12-06T10:32:00.692Z,85.45
2022-12-06T10:34:50.125Z,84.50
2022-12-06T10:37:46.958Z,84.70
2022-12-06T10:40:31.310Z,83.75
2022-12-06T10:43:38.600Z,83.86
2022-12-06T10:47:05.637Z,83.16
2022-12-06T10:50:04.221Z,82.75
2022-12-06T10:53:01.535Z,83.58
2022-12-06T10:55:54.496Z,83.85
2022-12-06T10:58:50.160Z,83.58
2022-12-06T11:01:34.351Z,83.18
2022-12-06T11:04:27.811Z,84.25
2022-12-06T11:07:15.698Z,84.51
2022-12-06T11:09:56.589Z,83.27
2022-12-06T11:12:34.711Z,82.82
2022-12-06T11:15:33.273Z,82.71
2022-12-06T11:18:15.455Z,81.10
2022-12-06T11:20:58.769Z,80.08
2022-12-06T11:23:46.477Z,79.15
2022-12-06T11:26:44.951Z,78.58
2022-12-06T11:29:18.352Z,78.86
2022-12-06T11:31:58.358Z,77.67
2022-12-06T11:34:46.395Z,77.08
2022-12-06T11:37:27.669Z,77.30
2022-12-06T11:40:17.092Z,77.71
2022-12-06T11:42:49.846Z,77.03
2022-12-06T11:45:27.908Z,76.61
2022-12-06T11:48:15.284Z,75.70
2022-12-06T11:50:50.843Z,76.05
2022-12-06T11:53:42.104Z,73.65
2022-12-06T11:56:25.015Z,73.48
2022-12-06T11:59:15.849Z,74.10
2022-12-06T12:01:51.792Z,74.10
2022-12-06T12:04:36.546Z,73.73
2022-12-06T12:07:23.202Z,72.59
2022-12-06T12:10:36.377Z,73.43
2022-12-06T12:13:42.047Z,73.43
2022-12-06T12:16:29.646Z,73.38
2022-12-06T12:19:51.994Z,72.20
2022-12-06T12:22:29.133Z,73.28
2022-12-06T12:25:25.990Z,72.88
2022-12-06T12:28:01.949Z,73.10
2022-12-06T12:30:38.065Z,71.62
2022-12-06T12:33:17.777Z,71.78
2022-12-06T12:35:55.956Z,69.89
2022-12-06T12:38:42.172Z,70.78
2022-12-06T12:41:29.107Z,70.77
2022-12-06T12:44:42.438Z,71.37
2022-12-06T12:47:20.601Z,69.96
2022-12-06T12:50:23.834Z,70.79
2022-12-06T12:52:56.717Z,70.28
2022-12-06T12:55:31.300Z,69.89
2022-12-06T12:58:11.709Z,69.00
2022-12-06T13:00:49.035Z,69.85
2022-12-06T13:06:29.338Z,69.11
2022-12-06T13:09:05.632Z,69.80
2022-12-06T13:11:45.370Z,69.98
2022-12-06T13:14:25.290Z,69.48
2022-12-06T13:17:06.713Z,69.58
2022-12-06T13:19:51.731Z,69.41
2022-12-06T13:22:38.986Z,68.55
2022-12-06T13:25:11.897Z,68.98
2022-12-06T13:27:51.584Z,68.04
2022-12-06T13:30:30.352Z,67.82
2022-12-06T13:33:20.490Z,66.37
2022-12-06T13:36:08.214Z,66.11
2022-12-06T13:38:42.365Z,65.41
2022-12-06T13:41:58.605Z,65.82
2022-12-06T13:45:00.607Z,65.20
2022-12-06T13:47:33.065Z,65.88
2022-12-06T13:50:17.804Z,66.34
2022-12-06T13:52:50.235Z,66.38
2022-12-06T13:55:25.946Z,67.24
2022-12-06T13:57:58.517Z,66.35
2022-12-06T14:00:30.956Z,67.16
2022-12-06T14:03:19.003Z,67.17
2022-12-06T14:06:14.432Z,67.62
2022-12-06T14:09:00.998Z,67.58
2022-12-06T14:11:39.538Z,67.91
2022-12-06T14:14:25.415Z,67.97
2022-12-06T14:17:11.449Z,67.95
2022-12-06T14:19:48.720Z,67.70
2022-12-06T14:22:34.533Z,67.84
2022-12-06T14:25:28.371Z,67.80
2022-12-06T14:28:12.567Z,68.33
2022-12-06T14:30:46.150Z,68.71
2022-12-06T14:33:23.328Z,69.38
2022-12-06T14:35:56.745Z,69.21
2022-12-06T14:38:31.647Z,68.69
2022-12-06T14:41:22.520Z,69.11
2022-12-06T14:43:55.041Z,68.77
2022-12-06T14:46:28.016Z,69.36
2022-12-06T14:49:19.460Z,69.70
2022-12-06T14:51:53.668Z,70.07
2022-12-06T14:54:41.860Z,69.76
2022-12-06T14:57:38.817Z,70.18
2022-12-06T15:00:26.546Z,70.71
2022-12-06T15:03:29.802Z,70.75
2022-12-06T15:06:21.926Z,71.47
2022-12-06T15:08:57.170Z,70.75
2022-12-06T15:11:48.182Z,71.58
2022-12-06T15:14:23.447Z,72.28
2022-12-06T15:17:05.207Z,72.25
2022-12-06T15:19:45.021Z,72.27
2022-12-06T15:22:25.727Z,72.25
2022-12-06T15:25:00.133Z,73.14
2022-12-06T15:27:34.141Z,73.69
2022-12-06T15:30:09.215Z,73.47
2022-12-06T15:32:41.761Z,73.99
2022-12-06T15:35:18.640Z,74.15
2022-12-06T15:37:51.309Z,74.41
2022-12-06T15:40:23.790Z,74.39
2022-12-06T15:43:02.014Z,74.19
2022-12-06T15:45:34.991Z,74.25
2022-12-06T15:48:08.797Z,74.85
2022-12-06T15:50:41.541Z,74.97
2022-12-06T15:53:17.477Z,74.55
2022-12-06T15:55:50.956Z,74.74
2022-12-06T15:58:23.692Z,74.36
2022-12-06T16:00:57.530Z,74.96
2022-12-06T16:03:33.085Z,74.94
2022-12-06T16:06:05.942Z,75.73
2022-12-06T16:08:38.477Z,75.49
2022-12-06T16:11:18.139Z,76.01
2022-12-06T16:13:51.134Z,77.01
2022-12-06T16:16:24.224Z,77.29
2022-12-06T16:18:56.832Z,77.98
2022-12-06T16:21:50.800Z,78.01
2022-12-06T16:24:23.699Z,78.26
2022-12-06T16:26:56.256Z,78.49
2022-12-06T16:29:28.728Z,78.42
2022-12-06T16:32:01.380Z,78.21
2022-12-06T16:34:34.027Z,78.46
2022-12-06T16:37:06.658Z,78.65
2022-12-06T16:39:39.378Z,78.40
2022-12-06T16:42:11.946Z,77.88
2022-12-06T16:44:53.332Z,78.33
2022-12-06T16:49:57.237Z,78.82
2022-12-06T16:52:29.735Z,78.41
2022-12-06T16:55:02.664Z,79.11
2022-12-06T16:57:35.353Z,78.95
2022-12-06T17:00:10.405Z,79.57
2022-12-06T17:02:44.721Z,79.06
2022-12-06T17:05:23.631Z,79.89
2022-12-06T17:07:56.296Z,79.93
2022-12-06T17:10:29.145Z,79.85
2022-12-06T17:13:02.109Z,80.30
2022-12-06T17:15:34.583Z,80.38
2022-12-06T17:18:07.320Z,80.49
2022-12-06T17:20:39.962Z,79.93
2022-12-06T17:23:12.521Z,80.08
2022-12-06T17:25:45.009Z,80.04
2022-12-06T17:28:17.585Z,80.39
2022-12-06T17:30:51.366Z,80.34
2022-12-06T17:33:24.008Z,80.29
2022-12-06T17:35:56.513Z,80.57
2022-12-06T17:38:29.650Z,80.72
2022-12-06T17:41:22.261Z,81.11
2022-12-06T17:43:54.740Z,80.87
2022-12-06T17:46:28.683Z,80.87
2022-12-06T17:49:01.539Z,81.55
2022-12-06T17:51:34.116Z,82.08
2022-12-06T17:54:09.397Z,81.97
2022-12-06T17:56:51.827Z,81.82
2022-12-06T17:59:30.205Z,81.72
2022-12-06T18:02:18.910Z,81.75
2022-12-06T18:04:53.812Z,82.35
2022-12-06T18:07:26.514Z,82.33
2022-12-06T18:09:59.124Z,82.46
2022-12-06T18:12:32.152Z,82.79
2022-12-06T18:15:28.279Z,83.58
2022-12-06T18:18:00.815Z,82.98
2022-12-06T18:20:33.379Z,83.96
2022-12-06T18:23:05.879Z,82.88
2022-12-06T18:25:42.104Z,83.64
2022-12-06T18:28:14.613Z,83.68
2022-12-06T18:30:47.172Z,84.02
2022-12-06T18:33:22.577Z,84.06
2022-12-06T18:35:57.072Z,84.29
2022-12-06T18:38:30.173Z,84.40
2022-12-06T18:41:13.592Z,84.77
2022-12-06T18:43:47.213Z,84.82
2022-12-06T18:46:23.967Z,84.59
2022-12-06T18:49:00.089Z,84.11
2022-12-06T18:51:35.262Z,84.77
2022-12-06T18:54:08.911Z,85.38
2022-12-06T18:56:42.303Z,85.64
2022-12-06T18:59:14.884Z,85.91
2022-12-06T19:01:47.478Z,85.40
2022-12-06T19:04:20.160Z,85.52
2022-12-06T19:06:52.919Z,85.74
2022-12-06T19:09:25.555Z,86.02
2022-12-06T19:11:58.144Z,86.02
2022-12-06T19:14:30.666Z,86.16
2022-12-06T19:17:03.238Z,85.92
2022-12-06T19:19:35.908Z,86.12
2022-12-06T19:22:08.990Z,86.77
2022-12-06T19:24:41.718Z,86.36
2022-12-06T19:27:14.220Z,86.46
2022-12-06T19:29:48.293Z,86.43
2022-12-06T19:32:21.027Z,86.43
2022-12-06T19:34:55.740Z,86.68
2022-12-06T19:37:28.644Z,86.51
2022-12-06T19:40:01.577Z,86.42
2022-12-06T19:42:53.608Z,86.69
2022-12-06T19:45:26.266Z,87.23
2022-12-06T19:47:58.780Z,86.97
2022-12-06T19:50:34.642Z,87.54
2022-12-06T19:53:07.307Z,88.01
2022-12-06T19:55:48.647Z,87.28
2022-12-06T19:58:23.648Z,87.26
2022-12-06T20:00:56.318Z,87.17
2022-12-06T20:03:28.860Z,87.62
2022-12-06T20:06:17.919Z,88.01
2022-12-06T20:08:53.028Z,87.80
2022-12-06T20:11:46.696Z,87.54
2022-12-06T20:14:19.704Z,87.64
2022-12-06T20:16:52.655Z,87.43
2022-12-06T20:19:25.528Z,88.52
2022-12-06T20:21:58.246Z,88.83
2022-12-06T20:24:32.444Z,88.89
2022-12-06T20:27:05.635Z,88.06
2022-12-06T20:29:38.293Z,87.95
2022-12-06T20:32:11.666Z,88.32
2022-12-06T20:34:44.191Z,87.82
2022-12-06T20:37:16.758Z,87.87
2022-12-06T20:39:49.318Z,87.85
2022-12-06T20:42:21.939Z,87.83
2022-12-06T20:44:54.479Z,87.96
2022-12-06T20:47:27.294Z,87.84
2022-12-06T20:50:00.591Z,88.03
2022-12-06T20:52:33.611Z,87.56
2022-12-06T20:55:06.596Z,87.56
2022-12-06T20:57:39.367Z,87.67
2022-12-06T21:00:12.892Z,88.29
2022-12-06T21:02:45.987Z,88.17
2022-12-06T21:05:19.085Z,88.34
2022-12-06T21:07:51.877Z,88.09
2022-12-06T21:10:24.504Z,87.69
2022-12-06T21:12:59.504Z,88.49
2022-12-06T21:15:35.486Z,88.37
2022-12-06T21:18:08.120Z,88.32
2022-12-06T21:20:40.776Z,87.89
2022-12-06T21:23:13.320Z,87.60
2022-12-06T21:25:45.943Z,87.47
2022-12-06T21:28:18.673Z,87.83
2022-12-06T21:30:53.768Z,88.25
2022-12-06T21:33:26.778Z,87.93
2022-12-06T21:36:05.799Z,87.71
2022-12-06T21:38:39.283Z,87.85
2022-12-06T21:41:13.898Z,87.37
2022-12-06T21:43:46.955Z,87.09
2022-12-06T21:46:23.518Z,87.64
2022-12-06T21:48:59.660Z,87.47
2022-12-06T21:51:32.789Z,87.45
2022-12-06T21:54:05.441Z,88.33
2022-12-06T21:56:38.273Z,88.14
2022-12-06T21:59:10.920Z,87.78
2022-12-06T22:01:43.495Z,88.44
2022-12-06T22:04:16.302Z,88.49
2022-12-06T22:06:48.860Z,88.59
2022-12-06T22:09:21.540Z,88.59
2022-12-06T22:11:54.337Z,88.56
2022-12-06T22:14:26.974Z,88.75
2022-12-06T22:16:59.557Z,88.17
2022-12-06T22:19:32.277Z,88.05
2022-12-06T22:22:05.341Z,88.43
2022-12-06T22:24:37.964Z,88.20
2022-12-06T22:27:10.473Z,88.17
2022-12-06T22:29:43.044Z,88.52
2022-12-06T22:32:15.583Z,88.19
2022-12-06T22:34:48.213Z,88.57
2022-12-06T22:37:25.324Z,88.39
2022-12-06T22:40:01.011Z,88.62
2022-12-06T22:42:35.318Z,88.60
2022-12-06T22:45:08.871Z,88.69
2022-12-06T22:47:41.430Z,88.86
2022-12-06T22:50:13.952Z,88.63
2022-12-06T22:52:46.611Z,88.83
2022-12-06T22:55:19.132Z,88.66
2022-12-06T22:57:51.703Z,89.36
2022-12-06T23:00:24.599Z,88.92
2022-12-06T23:02:58.742Z,88.85
2022-12-06T23:05:31.280Z,89.79
2022-12-06T23:08:04.197Z,88.99
2022-12-06T23:10:36.762Z,90.38
2022-12-06T23:13:09.416Z,90.32
2022-12-06T23:15:42.142Z,90.69
2022-12-06T23:18:14.672Z,90.46
2022-12-06T23:20:47.279Z,90.24
2022-12-06T23:23:19.813Z,90.26
2022-12-06T23:25:52.411Z,90.37
2022-12-06T23:28:24.937Z,90.24
2022-12-06T23:31:12.898Z,90.34
2022-12-06T23:33:46.929Z,90.26
2022-12-06T23:36:23.529Z,89.62
2022-12-06T23:38:56.431Z,90.22
2022-12-06T23:41:31.590Z,89.73
2022-12-06T23:44:06.203Z,89.78
2022-12-06T23:46:41.585Z,89.63
2022-12-06T23:49:18.752Z,90.67
2022-12-06T23:51:51.567Z,90.49
2022-12-06T23:54:24.187Z,89.46
2022-12-06T23:56:56.737Z,89.96
2022-12-06T23:59:29.288Z,89.46
